Time;durP1;ratioP1;P1;durP2;ratioP2;P2;SDS_P1;SDS_P2;PMS_P1;PMS_P2;Temp;Humidity;BMP_temperature;BMP_pressure;BME280_temperature;BME280_humidity;BME280_pressure;Samples;Min_cycle;Max_cycle;Signal;HPM_P1;HPM_P2
2023/09/12 00:01:24;;;;;;;36.85;27.30;;;;;;;;;;5123618;27;20051;-57
2023/09/12 00:03:50;;;;;;;42.38;28.00;;;;;;;;;;5104714;27;20126;-57
2023/09/12 00:06:17;;;;;;;42.97;28.50;;;;;;;;;;5122872;27;20051;-58
2023/09/12 00:08:43;;;;;;;42.40;27.75;;;;;;;;;;5123740;27;20196;-54
2023/09/12 00:11:11;;;;;;;38.95;27.05;;;;;;;;;;5124262;27;20626;-57
2023/09/12 00:13:38;;;;;;;43.20;27.33;;;;;;;;;;5121949;27;20060;-56
2023/09/12 00:16:05;;;;;;;41.85;27.08;;;;;;;;;;5122724;27;20047;-57
2023/09/12 00:18:34;;;;;;;43.38;27.45;;;;;;;;;;5122981;27;20056;-56
2023/09/12 00:21:01;;;;;;;46.17;28.45;;;;;;;;;;5122433;27;20182;-55
2023/09/12 00:23:27;;;;;;;43.00;26.65;;;;;;;;;;5129248;27;20075;-56
2023/09/12 00:25:54;;;;;;;44.92;28.92;;;;;;;;;;5114851;27;20143;-57
2023/09/12 00:28:20;;;;;;;43.55;27.83;;;;;;;;;;5117951;27;20056;-56
2023/09/12 00:30:47;;;;;;;43.38;27.00;;;;;;;;;;5123788;27;20051;-55
2023/09/12 00:33:13;;;;;;;45.25;27.98;;;;;;;;;;5123218;27;20509;-57
2023/09/12 00:35:40;;;;;;;39.38;28.45;;;;;;;;;;5123364;27;20043;-56
2023/09/12 00:38:08;;;;;;;44.00;27.52;;;;;;;;;;5123161;27;20079;-53
2023/09/12 00:40:35;;;;;;;41.72;27.35;;;;;;;;;;5123558;27;20051;-56
2023/09/12 00:43:02;;;;;;;42.30;29.02;;;;;;;;;;5115694;27;20047;-55
2023/09/12 00:45:28;;;;;;;44.42;27.58;;;;;;;;;;5122268;27;20529;-56
2023/09/12 00:47:55;;;;;;;40.35;27.08;;;;;;;;;;5121494;27;20608;-57
2023/09/12 00:50:23;;;;;;;40.83;26.25;;;;;;;;;;5126103;27;20055;-57
2023/09/12 00:52:50;;;;;;;41.17;26.52;;;;;;;;;;5123563;27;20502;-53
2023/09/12 00:55:16;;;;;;;40.42;27.05;;;;;;;;;;5122163;27;20310;-58
2023/09/12 00:57:43;;;;;;;34.50;25.58;;;;;;;;;;5104451;27;20052;-56
2023/09/12 01:00:12;;;;;;;38.45;26.48;;;;;;;;;;5121143;27;20056;-56
2023/09/12 01:02:39;;;;;;;39.15;25.45;;;;;;;;;;5113323;27;20055;-58
2023/09/12 01:05:06;;;;;;;37.35;24.77;;;;;;;;;;5112392;27;20116;-52
2023/09/12 01:07:33;;;;;;;40.78;27.08;;;;;;;;;;5120876;27;20052;-59
2023/09/12 01:10:01;;;;;;;39.78;25.45;;;;;;;;;;5123416;27;20122;-57
2023/09/12 01:12:27;;;;;;;38.35;25.95;;;;;;;;;;5122637;27;20047;-55
2023/09/12 01:14:54;;;;;;;37.90;26.50;;;;;;;;;;5118121;27;20159;-56
2023/09/12 01:17:20;;;;;;;38.95;25.60;;;;;;;;;;5120015;27;20055;-57
2023/09/12 01:19:48;;;;;;;42.42;26.00;;;;;;;;;;5122331;27;20047;-57
2023/09/12 01:22:14;;;;;;;40.60;26.17;;;;;;;;;;5120440;27;20501;-57
2023/09/12 01:24:49;;;;;;;37.97;25.38;;;;;;;;;;5128058;27;20638;-54
2023/09/12 01:27:21;;;;;;;41.00;26.35;;;;;;;;;;5104646;27;20146;-58
2023/09/12 01:29:49;;;;;;;40.30;26.00;;;;;;;;;;5121388;27;20048;-54
2023/09/12 01:32:18;;;;;;;43.40;27.08;;;;;;;;;;5121628;27;20536;-57
2023/09/12 01:34:44;;;;;;;42.47;26.48;;;;;;;;;;5121207;27;20078;-55
2023/09/12 01:37:10;;;;;;;41.33;26.38;;;;;;;;;;5123727;27;20714;-56
2023/09/12 01:39:37;;;;;;;45.85;27.90;;;;;;;;;;5121965;27;20147;-53
2023/09/12 01:42:04;;;;;;;43.97;27.73;;;;;;;;;;5122509;27;20142;-54
2023/09/12 01:44:31;;;;;;;41.83;27.20;;;;;;;;;;5122312;27;20047;-57
2023/09/12 01:47:01;;;;;;;44.75;27.52;;;;;;;;;;5122257;27;20058;-56
2023/09/12 01:49:27;;;;;;;41.25;27.30;;;;;;;;;;5121316;27;20075;-56
2023/09/12 01:51:54;;;;;;;41.40;26.42;;;;;;;;;;5120157;27;20516;-52
2023/09/12 01:54:21;;;;;;;42.83;27.00;;;;;;;;;;5113723;27;20513;-55
2023/09/12 01:56:48;;;;;;;46.10;28.33;;;;;;;;;;5100641;27;20510;-57
2023/09/12 01:59:14;;;;;;;41.40;26.55;;;;;;;;;;5102793;27;20101;-56
2023/09/12 02:01:42;;;;;;;42.38;26.63;;;;;;;;;;5122026;27;20052;-57
2023/09/12 02:04:09;;;;;;;43.13;27.67;;;;;;;;;;5121964;27;20052;-56
2023/09/12 02:06:35;;;;;;;43.72;26.83;;;;;;;;;;5127986;27;20535;-57
2023/09/12 02:09:02;;;;;;;39.80;25.25;;;;;;;;;;5120472;27;20055;-56
2023/09/12 02:11:29;;;;;;;42.08;26.88;;;;;;;;;;5123223;27;20054;-56
2023/09/12 02:13:55;;;;;;;40.92;26.27;;;;;;;;;;5124551;27;20695;-57
2023/09/12 02:16:21;;;;;;;42.42;27.25;;;;;;;;;;5125122;27;20109;-57
2023/09/12 02:18:48;;;;;;;44.55;26.98;;;;;;;;;;5126136;27;20048;-55
2023/09/12 02:21:15;;;;;;;43.17;27.15;;;;;;;;;;5120782;27;20056;-57
2023/09/12 02:23:42;;;;;;;39.90;26.48;;;;;;;;;;5094095;27;20521;-56
2023/09/12 02:26:08;;;;;;;42.08;26.65;;;;;;;;;;5122482;27;20062;-57
2023/09/12 02:28:35;;;;;;;42.25;25.48;;;;;;;;;;5125203;27;20619;-58
2023/09/12 02:31:02;;;;;;;39.65;26.35;;;;;;;;;;5130012;27;20047;-57
2023/09/12 02:33:28;;;;;;;36.03;24.33;;;;;;;;;;5127616;27;20055;-57
2023/09/12 02:35:55;;;;;;;38.85;25.52;;;;;;;;;;5124849;27;20636;-56
2023/09/12 02:38:21;;;;;;;39.78;26.27;;;;;;;;;;5124870;27;20487;-57
2023/09/12 02:40:48;;;;;;;43.10;24.52;;;;;;;;;;5124746;27;20048;-57
2023/09/12 02:43:14;;;;;;;39.95;25.30;;;;;;;;;;5120187;27;20062;-54
2023/09/12 02:45:40;;;;;;;37.78;24.65;;;;;;;;;;5119713;27;20553;-60
2023/09/12 02:48:07;;;;;;;34.30;24.42;;;;;;;;;;5124436;27;20059;-59
2023/09/12 02:50:33;;;;;;;40.30;25.85;;;;;;;;;;5125339;27;20105;-56
2023/09/12 02:53:00;;;;;;;37.28;25.40;;;;;;;;;;5129307;27;20074;-56
2023/09/12 02:55:27;;;;;;;37.67;24.75;;;;;;;;;;5120340;27;20043;-57
2023/09/12 02:57:53;;;;;;;37.65;24.92;;;;;;;;;;5124560;27;20501;-53
2023/09/12 03:00:20;;;;;;;35.90;24.95;;;;;;;;;;5124917;27;20047;-58
2023/09/12 03:02:46;;;;;;;39.42;25.38;;;;;;;;;;5125243;27;20051;-59
2023/09/12 03:05:13;;;;;;;38.00;25.50;;;;;;;;;;5118521;27;20063;-58
2023/09/12 03:07:39;;;;;;;39.83;25.23;;;;;;;;;;5121687;27;20555;-59
2023/09/12 03:10:06;;;;;;;38.75;25.13;;;;;;;;;;5123604;27;20083;-57
2023/09/12 03:12:32;;;;;;;39.72;24.67;;;;;;;;;;5125690;27;20082;-59
2023/09/12 03:14:59;;;;;;;36.03;25.70;;;;;;;;;;5123066;27;20055;-58
2023/09/12 03:17:25;;;;;;;38.25;25.80;;;;;;;;;;5124724;27;20113;-57
2023/09/12 03:19:51;;;;;;;40.80;24.73;;;;;;;;;;5122643;27;20055;-58
2023/09/12 03:22:18;;;;;;;37.97;25.67;;;;;;;;;;5124784;27;20083;-58
2023/09/12 03:24:45;;;;;;;34.40;24.35;;;;;;;;;;5125031;27;20058;-57
2023/09/12 03:27:11;;;;;;;38.15;23.60;;;;;;;;;;5123677;27;20068;-54
2023/09/12 03:29:38;;;;;;;44.67;26.35;;;;;;;;;;5123624;27;20486;-59
2023/09/12 03:32:05;;;;;;;41.17;25.70;;;;;;;;;;5123947;27;20571;-58
2023/09/12 03:34:32;;;;;;;41.88;26.13;;;;;;;;;;5125666;27;20052;-57
2023/09/12 03:36:58;;;;;;;35.67;24.77;;;;;;;;;;5123899;27;20083;-55
2023/09/12 03:39:25;;;;;;;40.10;24.88;;;;;;;;;;5121207;27;20139;-56
2023/09/12 03:41:51;;;;;;;43.35;25.52;;;;;;;;;;5120215;27;20520;-55
2023/09/12 03:44:17;;;;;;;41.38;27.08;;;;;;;;;;5124643;27;20156;-56
2023/09/12 03:46:44;;;;;;;45.50;26.10;;;;;;;;;;5124030;27;20043;-54
2023/09/12 03:49:10;;;;;;;40.95;25.55;;;;;;;;;;5122818;27;20546;-56
2023/09/12 03:51:37;;;;;;;49.08;25.58;;;;;;;;;;5124015;27;20051;-57
2023/09/12 03:54:04;;;;;;;43.50;26.52;;;;;;;;;;5127999;27;20359;-56
2023/09/12 03:56:32;;;;;;;38.80;24.85;;;;;;;;;;5114508;27;20106;-57
2023/09/12 03:58:59;;;;;;;43.72;26.90;;;;;;;;;;5120024;27;20146;-55
2023/09/12 04:01:26;;;;;;;46.50;27.63;;;;;;;;;;5123727;27;20044;-55
2023/09/12 04:03:53;;;;;;;49.35;28.27;;;;;;;;;;5122568;27;20056;-56
2023/09/12 04:06:19;;;;;;;46.92;27.45;;;;;;;;;;5118326;27;20052;-56
2023/09/12 04:08:46;;;;;;;44.53;26.70;;;;;;;;;;5119278;27;20055;-55
2023/09/12 04:11:12;;;;;;;50.50;28.58;;;;;;;;;;5119892;27;20510;-53
2023/09/12 04:13:39;;;;;;;52.42;28.80;;;;;;;;;;5123421;27;20071;-57
2023/09/12 04:16:05;;;;;;;47.63;28.05;;;;;;;;;;5124398;27;20055;-57
2023/09/12 04:18:32;;;;;;;49.45;28.50;;;;;;;;;;5124055;27;20083;-58
2023/09/12 04:20:59;;;;;;;48.75;27.67;;;;;;;;;;5123909;27;20056;-56
2023/09/12 04:23:25;;;;;;;50.10;27.05;;;;;;;;;;5120418;27;20128;-57
2023/09/12 04:25:51;;;;;;;42.20;26.15;;;;;;;;;;5117130;27;20153;-57
2023/09/12 04:28:18;;;;;;;48.88;28.58;;;;;;;;;;5117349;27;20399;-57
2023/09/12 04:30:44;;;;;;;44.88;28.35;;;;;;;;;;5122174;27;20495;-55
2023/09/12 04:33:12;;;;;;;49.50;28.58;;;;;;;;;;5120017;27;20089;-56
2023/09/12 04:35:39;;;;;;;46.92;28.25;;;;;;;;;;5119908;27;20056;-57
2023/09/12 04:38:05;;;;;;;47.95;29.27;;;;;;;;;;5124514;27;20051;-57
2023/09/12 04:40:32;;;;;;;51.13;29.63;;;;;;;;;;5123149;27;20085;-57
2023/09/12 04:42:58;;;;;;;48.13;27.70;;;;;;;;;;5118676;27;20066;-56
2023/09/12 04:45:25;;;;;;;43.92;28.35;;;;;;;;;;5122737;27;20500;-57
2023/09/12 04:47:51;;;;;;;46.47;27.52;;;;;;;;;;5124618;27;20540;-53
2023/09/12 04:50:18;;;;;;;48.97;28.75;;;;;;;;;;5123394;27;20052;-57
2023/09/12 04:52:44;;;;;;;46.90;28.75;;;;;;;;;;5120537;27;20087;-56
2023/09/12 04:55:10;;;;;;;49.40;27.60;;;;;;;;;;5122362;27;20078;-57
2023/09/12 04:57:37;;;;;;;44.60;27.85;;;;;;;;;;5129116;27;20789;-56
2023/09/12 05:00:06;;;;;;;47.33;28.02;;;;;;;;;;5122076;27;20055;-55
2023/09/12 05:02:33;;;;;;;46.67;27.58;;;;;;;;;;5121773;27;20078;-58
2023/09/12 05:04:59;;;;;;;50.78;30.25;;;;;;;;;;5122194;27;20061;-56
2023/09/12 05:07:26;;;;;;;50.20;28.63;;;;;;;;;;5134030;27;20055;-56
2023/09/12 05:09:52;;;;;;;50.65;28.30;;;;;;;;;;5130540;27;20087;-57
2023/09/12 05:12:19;;;;;;;51.97;29.15;;;;;;;;;;5124939;27;20142;-56
2023/09/12 05:14:45;;;;;;;56.60;30.45;;;;;;;;;;5121718;27;20638;-56
2023/09/12 05:17:11;;;;;;;54.67;31.85;;;;;;;;;;5126272;27;20055;-56
2023/09/12 05:19:38;;;;;;;56.60;31.23;;;;;;;;;;5125578;27;20058;-56
2023/09/12 05:22:04;;;;;;;54.00;31.80;;;;;;;;;;5121431;27;20558;-60
2023/09/12 05:24:32;;;;;;;57.38;32.78;;;;;;;;;;5105372;27;20081;-57
2023/09/12 05:26:58;;;;;;;63.58;34.22;;;;;;;;;;5120673;27;20170;-58
2023/09/12 05:29:25;;;;;;;54.28;33.15;;;;;;;;;;5126459;27;20170;-56
2023/09/12 05:31:51;;;;;;;59.35;34.53;;;;;;;;;;5123913;27;20047;-59
2023/09/12 05:34:18;;;;;;;62.00;34.05;;;;;;;;;;5121803;27;20480;-58
2023/09/12 05:36:44;;;;;;;55.95;32.28;;;;;;;;;;5121680;27;20066;-57
2023/09/12 05:39:13;;;;;;;59.28;32.88;;;;;;;;;;5120693;27;20059;-59
2023/09/12 05:41:40;;;;;;;60.72;32.83;;;;;;;;;;5122691;27;20109;-58
2023/09/12 05:44:06;;;;;;;62.78;34.00;;;;;;;;;;5127144;27;20516;-58
2023/09/12 05:46:32;;;;;;;57.78;33.20;;;;;;;;;;5134065;27;20572;-56
2023/09/12 05:48:59;;;;;;;56.22;33.42;;;;;;;;;;5119446;27;20059;-58
2023/09/12 05:51:25;;;;;;;59.83;34.58;;;;;;;;;;5119424;27;20059;-57
2023/09/12 05:53:52;;;;;;;58.97;32.30;;;;;;;;;;5128268;27;21396;-58
2023/09/12 05:56:21;;;;;;;57.17;33.63;;;;;;;;;;5125039;27;20047;-58
2023/09/12 05:58:49;;;;;;;64.38;34.92;;;;;;;;;;5123949;27;20055;-59
2023/09/12 06:01:16;;;;;;;62.60;34.42;;;;;;;;;;5116549;27;20106;-56
2023/09/12 06:03:43;;;;;;;65.63;37.33;;;;;;;;;;5123597;27;20063;-57
2023/09/12 06:06:09;;;;;;;67.75;36.88;;;;;;;;;;5121150;27;20178;-59
2023/09/12 06:08:36;;;;;;;62.60;34.13;;;;;;;;;;5126394;27;20051;-53
2023/09/12 06:11:03;;;;;;;64.22;34.95;;;;;;;;;;5127871;27;20513;-57
2023/09/12 06:13:30;;;;;;;63.88;33.80;;;;;;;;;;5123538;27;20120;-59
2023/09/12 06:15:57;;;;;;;63.58;34.65;;;;;;;;;;5125641;27;20516;-57
2023/09/12 06:18:24;;;;;;;65.68;35.63;;;;;;;;;;5128362;27;20092;-56
2023/09/12 06:20:50;;;;;;;62.17;34.65;;;;;;;;;;5131263;27;20052;-57
2023/09/12 06:23:16;;;;;;;56.30;33.63;;;;;;;;;;5122593;27;20056;-57
2023/09/12 06:25:43;;;;;;;61.75;34.38;;;;;;;;;;5124714;27;20101;-57
2023/09/12 06:28:10;;;;;;;60.08;35.60;;;;;;;;;;5124523;27;20056;-60
2023/09/12 06:30:36;;;;;;;59.38;32.53;;;;;;;;;;5124392;27;20087;-58
2023/09/12 06:33:03;;;;;;;61.78;33.42;;;;;;;;;;5128308;27;20043;-58
2023/09/12 06:35:31;;;;;;;56.15;32.22;;;;;;;;;;5126865;27;20069;-58
2023/09/12 06:37:58;;;;;;;62.20;35.17;;;;;;;;;;5124896;27;20147;-56
2023/09/12 06:40:24;;;;;;;62.20;32.90;;;;;;;;;;5122571;27;20551;-58
2023/09/12 06:42:51;;;;;;;62.17;34.08;;;;;;;;;;5132453;27;20599;-58
2023/09/12 06:45:17;;;;;;;60.28;32.30;;;;;;;;;;5124194;27;20050;-58
2023/09/12 06:47:44;;;;;;;61.30;33.90;;;;;;;;;;5126030;27;20052;-56
2023/09/12 06:50:10;;;;;;;55.90;31.02;;;;;;;;;;5130587;27;20984;-59
2023/09/12 06:52:41;;;;;;;51.05;30.45;;;;;;;;;;5124150;27;20617;-58
2023/09/12 06:55:07;;;;;;;62.60;32.78;;;;;;;;;;5130715;27;20502;-56
2023/09/12 06:57:33;;;;;;;57.63;33.08;;;;;;;;;;5134234;27;20138;-57
2023/09/12 07:00:06;;;;;;;51.92;31.45;;;;;;;;;;5131869;27;20054;-57
2023/09/12 07:02:33;;;;;;;59.33;31.45;;;;;;;;;;5126574;27;20075;-58
2023/09/12 07:04:59;;;;;;;57.85;32.88;;;;;;;;;;5120431;27;20082;-57
2023/09/12 07:07:26;;;;;;;62.90;33.53;;;;;;;;;;5124014;27;20056;-59
2023/09/12 07:09:52;;;;;;;60.25;32.75;;;;;;;;;;5125063;27;20541;-57
2023/09/12 07:12:28;;;;;;;53.40;30.83;;;;;;;;;;5122961;27;20048;-57
2023/09/12 07:14:55;;;;;;;57.17;30.42;;;;;;;;;;5121424;27;20056;-58
2023/09/12 07:17:22;;;;;;;48.83;27.25;;;;;;;;;;5126639;27;20565;-56
2023/09/12 07:19:48;;;;;;;51.97;28.20;;;;;;;;;;5127278;27;20048;-58
2023/09/12 07:22:15;;;;;;;49.22;28.42;;;;;;;;;;5123634;27;20432;-58
2023/09/12 07:24:41;;;;;;;47.78;27.92;;;;;;;;;;5127872;27;20541;-59
2023/09/12 07:27:08;;;;;;;45.80;26.85;;;;;;;;;;5124348;27;20146;-58
2023/09/12 07:29:34;;;;;;;46.60;26.23;;;;;;;;;;5129307;27;20593;-59
2023/09/12 07:32:01;;;;;;;47.20;24.55;;;;;;;;;;5126009;27;20055;-56
2023/09/12 07:34:27;;;;;;;41.03;24.77;;;;;;;;;;5125666;27;20055;-56
2023/09/12 07:36:54;;;;;;;48.20;25.35;;;;;;;;;;5107777;27;20056;-58
2023/09/12 07:39:20;;;;;;;43.65;25.67;;;;;;;;;;5123079;27;20388;-59
2023/09/12 07:41:47;;;;;;;47.00;26.25;;;;;;;;;;5123710;27;20140;-58
2023/09/12 07:44:15;;;;;;;46.03;25.50;;;;;;;;;;5124236;27;20052;-60
2023/09/12 07:46:42;;;;;;;49.50;25.55;;;;;;;;;;5129970;27;20059;-58
2023/09/12 07:49:09;;;;;;;43.78;22.80;;;;;;;;;;5123491;27;20056;-56
2023/09/12 07:51:35;;;;;;;43.45;24.23;;;;;;;;;;5124953;27;20101;-58
2023/09/12 07:54:02;;;;;;;40.55;23.42;;;;;;;;;;5103862;27;20509;-59
2023/09/12 07:56:29;;;;;;;35.80;22.58;;;;;;;;;;5122357;27;20517;-60
2023/09/12 07:58:57;;;;;;;42.97;23.90;;;;;;;;;;5123847;27;20047;-59
2023/09/12 08:01:23;;;;;;;45.55;23.05;;;;;;;;;;5130629;27;20071;-58
2023/09/12 08:03:50;;;;;;;41.58;21.67;;;;;;;;;;5120214;27;20052;-59
2023/09/12 08:06:17;;;;;;;39.42;21.83;;;;;;;;;;5119541;27;20606;-59
2023/09/12 08:08:43;;;;;;;35.70;21.92;;;;;;;;;;5123929;27;20055;-59
2023/09/12 08:11:11;;;;;;;40.10;20.50;;;;;;;;;;5124127;27;20051;-59
2023/09/12 08:13:38;;;;;;;37.72;22.90;;;;;;;;;;5119312;27;20147;-60
2023/09/12 08:16:04;;;;;;;50.10;24.77;;;;;;;;;;5127564;27;20187;-59
2023/09/12 08:18:31;;;;;;;47.40;23.75;;;;;;;;;;5122000;27;20572;-59
2023/09/12 08:20:57;;;;;;;42.22;23.95;;;;;;;;;;5120899;27;20519;-55
2023/09/12 08:23:24;;;;;;;49.00;23.75;;;;;;;;;;5121551;27;20101;-58
2023/09/12 08:25:51;;;;;;;46.15;23.65;;;;;;;;;;5121494;27;20066;-59
2023/09/12 08:28:17;;;;;;;47.70;25.90;;;;;;;;;;5125984;27;20051;-57
2023/09/12 08:30:46;;;;;;;50.50;24.70;;;;;;;;;;5123936;27;20079;-57
2023/09/12 08:33:12;;;;;;;40.90;23.90;;;;;;;;;;5122511;27;20510;-57
2023/09/12 08:35:39;;;;;;;41.70;23.83;;;;;;;;;;5122978;27;20054;-59
2023/09/12 08:38:06;;;;;;;48.00;24.25;;;;;;;;;;5122470;27;20048;-59
2023/09/12 08:40:35;;;;;;;47.78;24.08;;;;;;;;;;5124060;27;20145;-58
2023/09/12 08:43:03;;;;;;;41.03;22.10;;;;;;;;;;5124760;27;20072;-57
2023/09/12 08:45:30;;;;;;;39.90;22.42;;;;;;;;;;5122639;27;20055;-60
2023/09/12 08:47:58;;;;;;;40.13;22.98;;;;;;;;;;5122984;27;20078;-59
2023/09/12 08:50:25;;;;;;;39.90;23.58;;;;;;;;;;5123161;27;20051;-60
2023/09/12 08:52:51;;;;;;;48.92;24.75;;;;;;;;;;5121193;27;20572;-58
2023/09/12 08:55:35;;;;;;;43.00;23.38;;;;;;;;;;5112858;27;20074;-59
2023/09/12 08:58:03;;;;;;;38.25;23.70;;;;;;;;;;5123105;27;20052;-57
2023/09/12 09:00:31;;;;;;;51.63;24.05;;;;;;;;;;5123756;27;20502;-58
2023/09/12 09:02:58;;;;;;;44.65;24.40;;;;;;;;;;5122643;27;20583;-59
2023/09/12 09:05:27;;;;;;;42.17;23.80;;;;;;;;;;5120434;27;20066;-58
2023/09/12 09:07:54;;;;;;;40.25;22.00;;;;;;;;;;5118469;27;20532;-57
2023/09/12 09:10:22;;;;;;;36.10;23.10;;;;;;;;;;5122745;27;20143;-58
2023/09/12 09:13:03;;;;;;;38.80;23.40;;;;;;;;;;5123330;27;20052;-58
2023/09/12 09:15:30;;;;;;;42.15;24.67;;;;;;;;;;5120349;27;20512;-58
2023/09/12 09:18:00;;;;;;;38.17;26.00;;;;;;;;;;5122567;27;20074;-55
2023/09/12 09:20:30;;;;;;;41.72;25.95;;;;;;;;;;5119360;27;20075;-55
2023/09/12 09:22:58;;;;;;;47.38;25.33;;;;;;;;;;5127662;27;20611;-55
2023/09/12 09:25:24;;;;;;;42.83;26.48;;;;;;;;;;5111397;27;20098;-59
2023/09/12 09:27:50;;;;;;;41.28;24.25;;;;;;;;;;5119244;27;20189;-59
2023/09/12 09:30:18;;;;;;;40.45;25.33;;;;;;;;;;5122968;27;20786;-57
2023/09/12 09:32:45;;;;;;;36.72;25.15;;;;;;;;;;5126883;27;20055;-58
2023/09/12 09:35:12;;;;;;;44.67;25.65;;;;;;;;;;5127132;27;20062;-58
2023/09/12 09:37:39;;;;;;;42.08;25.63;;;;;;;;;;5117686;27;20452;-57
2023/09/12 09:40:06;;;;;;;39.67;25.23;;;;;;;;;;5123283;27;20565;-58
2023/09/12 09:42:32;;;;;;;40.00;26.25;;;;;;;;;;5123096;27;21172;-58
2023/09/12 09:44:59;;;;;;;45.63;27.65;;;;;;;;;;5121645;27;20082;-58
2023/09/12 09:47:25;;;;;;;47.47;27.30;;;;;;;;;;5122282;27;20054;-57
2023/09/12 09:49:52;;;;;;;47.20;25.85;;;;;;;;;;5123152;27;20142;-56
2023/09/12 09:52:25;;;;;;;41.85;27.20;;;;;;;;;;5126085;27;20059;-58
2023/09/12 09:54:51;;;;;;;41.38;26.27;;;;;;;;;;5119621;27;20128;-57
2023/09/12 09:57:17;;;;;;;39.75;26.25;;;;;;;;;;5117494;27;20113;-59
2023/09/12 09:59:49;;;;;;;34.28;24.88;;;;;;;;;;5116595;27;20146;-57
2023/09/12 10:02:19;;;;;;;40.33;25.13;;;;;;;;;;5120845;27;20056;-59
2023/09/12 10:04:46;;;;;;;37.53;24.35;;;;;;;;;;5123172;27;20054;-59
2023/09/12 10:07:13;;;;;;;36.20;24.35;;;;;;;;;;5121160;27;20091;-59
2023/09/12 10:09:40;;;;;;;36.53;24.00;;;;;;;;;;5122553;27;20062;-59
2023/09/12 10:12:07;;;;;;;37.95;23.65;;;;;;;;;;5121394;27;20055;-61
2023/09/12 10:14:35;;;;;;;35.08;22.77;;;;;;;;;;5117959;27;21505;-58
2023/09/12 10:17:02;;;;;;;31.00;21.23;;;;;;;;;;5121472;27;20105;-59
2023/09/12 10:19:43;;;;;;;34.85;23.35;;;;;;;;;;5118788;27;20545;-58
2023/09/12 10:22:12;;;;;;;38.05;24.40;;;;;;;;;;5121211;27;20051;-57
2023/09/12 10:24:39;;;;;;;33.78;22.33;;;;;;;;;;5127442;27;20052;-58
2023/09/12 10:27:06;;;;;;;37.17;23.52;;;;;;;;;;5122055;27;20058;-58
2023/09/12 10:29:33;;;;;;;31.80;21.10;;;;;;;;;;5123911;27;20055;-59
2023/09/12 10:32:00;;;;;;;35.58;20.65;;;;;;;;;;5125194;27;20578;-58
2023/09/12 10:34:27;;;;;;;32.55;21.08;;;;;;;;;;5124069;27;20150;-57
2023/09/12 10:36:55;;;;;;;35.05;22.27;;;;;;;;;;5126024;27;20522;-57
2023/09/12 10:39:22;;;;;;;32.03;21.88;;;;;;;;;;5125399;27;20082;-58
2023/09/12 10:41:49;;;;;;;38.13;22.20;;;;;;;;;;5121824;27;20059;-56
2023/09/12 10:44:17;;;;;;;33.80;21.10;;;;;;;;;;5123968;27;20051;-59
2023/09/12 10:46:44;;;;;;;35.83;21.30;;;;;;;;;;5122257;27;20146;-59
2023/09/12 10:49:11;;;;;;;29.23;19.27;;;;;;;;;;5122592;27;20422;-54
2023/09/12 10:51:39;;;;;;;26.50;18.33;;;;;;;;;;5124196;27;20055;-58
2023/09/12 10:54:07;;;;;;;25.80;17.83;;;;;;;;;;5122482;27;20059;-57
2023/09/12 10:56:34;;;;;;;29.55;20.17;;;;;;;;;;5129140;27;20048;-58
2023/09/12 10:59:03;;;;;;;29.00;18.85;;;;;;;;;;5117935;27;20142;-57
2023/09/12 11:01:35;;;;;;;23.75;17.58;;;;;;;;;;5123129;27;20056;-56
2023/09/12 11:04:28;;;;;;;25.45;17.38;;;;;;;;;;5124496;27;20058;-58
2023/09/12 11:06:55;;;;;;;27.52;18.33;;;;;;;;;;5112134;27;20571;-60
2023/09/12 11:09:23;;;;;;;22.20;16.85;;;;;;;;;;5125318;27;20396;-55
2023/09/12 11:12:02;;;;;;;26.10;16.80;;;;;;;;;;5120733;27;20811;-59
2023/09/12 11:14:29;;;;;;;24.23;16.70;;;;;;;;;;5119986;27;20063;-59
2023/09/12 11:17:07;;;;;;;24.40;19.23;;;;;;;;;;5125167;27;20555;-58
2023/09/12 11:19:52;;;;;;;31.75;18.38;;;;;;;;;;5124355;27;20055;-58
2023/09/12 11:22:22;;;;;;;25.77;17.50;;;;;;;;;;5121903;27;20506;-60
2023/09/12 11:24:49;;;;;;;23.95;18.13;;;;;;;;;;5126205;27;20459;-60
2023/09/12 11:27:17;;;;;;;25.05;17.65;;;;;;;;;;5123424;27;20055;-61
2023/09/12 11:29:43;;;;;;;27.60;17.42;;;;;;;;;;5123142;27;20052;-60
2023/09/12 11:32:10;;;;;;;23.90;17.95;;;;;;;;;;5121315;27;20096;-59
2023/09/12 11:34:38;;;;;;;23.35;15.90;;;;;;;;;;5123604;27;20055;-57
2023/09/12 11:37:05;;;;;;;26.80;17.02;;;;;;;;;;5124484;27;20086;-58
2023/09/12 11:39:39;;;;;;;26.20;16.90;;;;;;;;;;5106522;27;20048;-56
2023/09/12 11:42:10;;;;;;;22.52;15.00;;;;;;;;;;5116673;27;20101;-59
2023/09/12 11:44:38;;;;;;;20.65;14.82;;;;;;;;;;5121294;27;20522;-58
2023/09/12 11:47:07;;;;;;;15.73;11.98;;;;;;;;;;5124386;27;20134;-55
2023/09/12 11:49:37;;;;;;;17.52;12.68;;;;;;;;;;5124272;27;20090;-57
2023/09/12 11:52:07;;;;;;;17.27;12.60;;;;;;;;;;5124009;27;20051;-58
2023/09/12 11:54:34;;;;;;;21.90;12.80;;;;;;;;;;5122495;27;20101;-57
2023/09/12 11:57:04;;;;;;;17.42;13.15;;;;;;;;;;5124053;27;20155;-57
2023/09/12 11:59:31;;;;;;;16.83;10.98;;;;;;;;;;5106958;27;20044;-57
2023/09/12 12:01:57;;;;;;;15.85;10.32;;;;;;;;;;5121033;27;20110;-58
2023/09/12 12:04:27;;;;;;;14.43;10.18;;;;;;;;;;5123261;27;20052;-58
2023/09/12 12:06:54;;;;;;;16.00;10.80;;;;;;;;;;5114342;27;20456;-58
2023/09/12 12:09:21;;;;;;;26.17;12.10;;;;;;;;;;5123794;27;20494;-57
2023/09/12 12:11:47;;;;;;;14.20;10.25;;;;;;;;;;5121407;27;20075;-58
2023/09/12 12:14:15;;;;;;;9.32;7.05;;;;;;;;;;5114304;27;20099;-58
2023/09/12 12:16:42;;;;;;;12.93;8.90;;;;;;;;;;5118743;27;20071;-59
2023/09/12 12:19:09;;;;;;;16.05;10.27;;;;;;;;;;5129207;27;20079;-60
2023/09/12 12:21:36;;;;;;;15.80;10.88;;;;;;;;;;5103960;27;20574;-59
2023/09/12 12:24:03;;;;;;;18.52;11.32;;;;;;;;;;5123431;27;20538;-58
2023/09/12 12:26:30;;;;;;;17.27;10.82;;;;;;;;;;5104466;27;20056;-59
2023/09/12 12:28:58;;;;;;;16.63;10.02;;;;;;;;;;5123504;27;20058;-58
2023/09/12 12:31:26;;;;;;;15.10;10.18;;;;;;;;;;5124510;27;20162;-58
2023/09/12 12:33:56;;;;;;;12.85;9.32;;;;;;;;;;5119138;27;20512;-58
2023/09/12 12:36:43;;;;;;;13.60;8.43;;;;;;;;;;5125572;27;20313;-57
2023/09/12 12:39:22;;;;;;;11.40;7.35;;;;;;;;;;5122612;27;20047;-58
2023/09/12 12:41:48;;;;;;;9.65;6.70;;;;;;;;;;5122659;27;20675;-58
2023/09/12 12:44:17;;;;;;;11.15;6.80;;;;;;;;;;5117049;27;20059;-58
2023/09/12 12:46:50;;;;;;;13.20;7.80;;;;;;;;;;5124863;27;20099;-59
2023/09/12 12:49:16;;;;;;;14.18;8.55;;;;;;;;;;5122926;27;20212;-57
2023/09/12 12:51:43;;;;;;;13.07;10.27;;;;;;;;;;5122703;27;20043;-57
2023/09/12 12:54:10;;;;;;;21.08;9.23;;;;;;;;;;5121384;27;20158;-59
2023/09/12 12:56:37;;;;;;;13.00;9.15;;;;;;;;;;5121681;27;20047;-58
2023/09/12 12:59:06;;;;;;;14.52;9.40;;;;;;;;;;5125183;27;20055;-58
2023/09/12 13:01:34;;;;;;;11.95;8.70;;;;;;;;;;5123612;27;20051;-57
2023/09/12 13:04:01;;;;;;;14.27;8.07;;;;;;;;;;5109936;27;20048;-58
2023/09/12 13:06:29;;;;;;;13.88;7.90;;;;;;;;;;5123739;27;20050;-57
2023/09/12 13:08:59;;;;;;;13.80;8.45;;;;;;;;;;5125035;27;20465;-56
2023/09/12 13:11:26;;;;;;;14.43;10.77;;;;;;;;;;5120692;27;20149;-58
2023/09/12 13:13:53;;;;;;;14.88;11.90;;;;;;;;;;5124836;27;20063;-58
2023/09/12 13:16:19;;;;;;;16.15;12.43;;;;;;;;;;5115366;27;20056;-58
2023/09/12 13:18:46;;;;;;;19.33;13.60;;;;;;;;;;5120366;27;20074;-59
2023/09/12 13:21:12;;;;;;;24.30;14.13;;;;;;;;;;5128984;27;20055;-57
2023/09/12 13:23:39;;;;;;;20.27;14.05;;;;;;;;;;5121620;27;20056;-58
2023/09/12 13:26:07;;;;;;;16.02;10.27;;;;;;;;;;5123258;27;20056;-56
2023/09/12 13:28:34;;;;;;;12.88;8.15;;;;;;;;;;5125009;27;20055;-57
2023/09/12 13:31:01;;;;;;;8.50;5.85;;;;;;;;;;5123307;27;20048;-58
2023/09/12 13:33:28;;;;;;;7.35;4.95;;;;;;;;;;5124749;27;20501;-58
2023/09/12 13:35:54;;;;;;;6.90;5.13;;;;;;;;;;5121226;27;20051;-58
2023/09/12 13:38:22;;;;;;;8.38;5.00;;;;;;;;;;5122415;27;20048;-59
2023/09/12 13:40:49;;;;;;;9.05;6.15;;;;;;;;;;5121049;27;20142;-60
2023/09/12 13:43:15;;;;;;;9.27;7.13;;;;;;;;;;5120066;27;20083;-58
2023/09/12 13:45:42;;;;;;;9.45;6.20;;;;;;;;;;5121698;27;20580;-59
2023/09/12 13:48:08;;;;;;;10.07;6.10;;;;;;;;;;5099223;27;20856;-60
2023/09/12 13:50:35;;;;;;;10.13;7.57;;;;;;;;;;5121831;27;20058;-57
2023/09/12 13:53:08;;;;;;;14.68;11.07;;;;;;;;;;5120973;27;20189;-56
2023/09/12 13:55:35;;;;;;;16.83;10.00;;;;;;;;;;5122150;27;20055;-56
2023/09/12 13:58:22;;;;;;;12.20;6.95;;;;;;;;;;5115346;27;20052;-59
2023/09/12 14:00:49;;;;;;;9.50;6.65;;;;;;;;;;5129603;27;20055;-57
2023/09/12 14:03:16;;;;;;;9.43;6.13;;;;;;;;;;5121186;27;20136;-57
2023/09/12 14:05:43;;;;;;;10.00;6.72;;;;;;;;;;5128686;27;20117;-58
2023/09/12 14:08:10;;;;;;;11.70;8.32;;;;;;;;;;5125733;27;20498;-57
2023/09/12 14:10:37;;;;;;;15.20;7.85;;;;;;;;;;5131049;27;20058;-58
2023/09/12 14:13:05;;;;;;;12.18;8.48;;;;;;;;;;5122460;27;20083;-58
2023/09/12 14:15:49;;;;;;;16.33;8.32;;;;;;;;;;5126901;27;20102;-54
2023/09/12 14:18:17;;;;;;;10.73;6.97;;;;;;;;;;5125252;27;20059;-58
2023/09/12 14:20:46;;;;;;;9.40;6.97;;;;;;;;;;5124494;27;20078;-57